Time;durP1;ratioP1;P1;durP2;ratioP2;P2;SDS_P1;SDS_P2;PMS_P1;PMS_P2;Temp;Humidity;BMP_temperature;BMP_pressure;BME280_temperature;BME280_humidity;BME280_pressure;Samples;Min_cycle;Max_cycle;Signal;HPM_P1;HPM_P2
2024/01/17 00:00:51;;;;;;;6.05;2.85;;;0.80;99.90;;;;;;5049245;28;20052;-70
2024/01/17 00:03:17;;;;;;;9.13;2.55;;;0.70;99.90;;;;;;5046134;28;20040;-70
2024/01/17 00:05:42;;;;;;;8.80;3.40;;;0.70;99.90;;;;;;5049032;28;20300;-68
2024/01/17 00:08:09;;;;;;;7.37;3.23;;;0.70;99.90;;;;;;5051082;28;20049;-68
2024/01/17 00:10:34;;;;;;;12.38;2.90;;;0.70;99.90;;;;;;5055420;28;20104;-68
2024/01/17 00:13:01;;;;;;;8.20;3.33;;;0.70;99.90;;;;;;5064182;28;20185;-68
2024/01/17 00:15:26;;;;;;;11.55;3.20;;;0.60;99.90;;;;;;5062096;28;20035;-68
2024/01/17 00:17:55;;;;;;;5.77;2.90;;;0.60;99.90;;;;;;5067565;28;20044;-68
2024/01/17 00:20:20;;;;;;;8.75;3.67;;;0.60;99.90;;;;;;5041833;28;20106;-68
2024/01/17 00:22:49;;;;;;;6.00;3.37;;;0.60;99.90;;;;;;5055688;28;20040;-68
2024/01/17 00:25:15;;;;;;;5.18;3.38;;;0.60;99.90;;;;;;5056953;28;20037;-68
2024/01/17 00:27:41;;;;;;;7.17;3.70;;;0.60;99.90;;;;;;5065772;28;20052;-68
2024/01/17 00:30:07;;;;;;;7.17;3.63;;;0.60;99.90;;;;;;5048562;28;20809;-68
2024/01/17 00:32:33;;;;;;;10.43;4.28;;;0.60;99.90;;;;;;5049955;28;20041;-68
2024/01/17 00:34:58;;;;;;;8.25;4.15;;;0.60;99.90;;;;;;5043000;28;20057;-68
2024/01/17 00:37:25;;;;;;;15.60;4.53;;;0.60;99.90;;;;;;5066754;28;20042;-67
2024/01/17 00:39:51;;;;;;;5.78;3.63;;;0.60;99.90;;;;;;5063663;28;20468;-68
2024/01/17 00:42:16;;;;;;;8.05;3.50;;;0.60;99.90;;;;;;5057595;28;20087;-70
2024/01/17 00:44:42;;;;;;;11.83;3.70;;;0.60;99.90;;;;;;5054211;28;20068;-68
2024/01/17 00:47:08;;;;;;;6.77;4.10;;;0.60;99.90;;;;;;5072249;28;20036;-67
2024/01/17 00:49:34;;;;;;;8.43;4.13;;;0.60;99.90;;;;;;5053637;28;20032;-68
2024/01/17 00:52:00;;;;;;;10.10;4.00;;;0.60;99.90;;;;;;5050080;28;20045;-68
2024/01/17 00:54:29;;;;;;;10.40;4.20;;;0.60;99.90;;;;;;5063821;28;20040;-67
2024/01/17 00:56:54;;;;;;;9.82;5.03;;;0.60;99.90;;;;;;5046156;28;20087;-67
2024/01/17 00:59:20;;;;;;;8.13;3.73;;;0.60;99.90;;;;;;5041500;28;20507;-68
2024/01/17 01:01:45;;;;;;;8.13;3.90;;;0.60;99.90;;;;;;5044983;28;20037;-67
2024/01/17 01:04:11;;;;;;;12.97;5.00;;;0.60;99.90;;;;;;5061004;28;20492;-67
2024/01/17 01:06:37;;;;;;;9.83;4.27;;;0.60;99.90;;;;;;5053763;28;20037;-67
2024/01/17 01:09:02;;;;;;;8.87;4.70;;;0.60;99.90;;;;;;5066274;28;20086;-68
2024/01/17 01:11:32;;;;;;;12.27;4.57;;;0.60;99.90;;;;;;5048982;28;20044;-67
2024/01/17 01:13:58;;;;;;;10.77;4.70;;;0.60;99.90;;;;;;5072888;28;20153;-67
2024/01/17 01:16:24;;;;;;;10.63;3.72;;;0.60;99.90;;;;;;5071242;28;20234;-68
2024/01/17 01:18:50;;;;;;;10.43;4.10;;;0.60;99.90;;;;;;5053313;28;20056;-67
2024/01/17 01:21:15;;;;;;;7.70;3.83;;;0.70;99.90;;;;;;5068555;28;20067;-68
2024/01/17 01:23:41;;;;;;;9.33;4.43;;;0.70;99.90;;;;;;5034963;28;20490;-67
2024/01/17 01:26:06;;;;;;;10.60;4.27;;;0.60;99.90;;;;;;5070850;28;20446;-68
2024/01/17 01:28:32;;;;;;;8.67;4.07;;;0.70;99.90;;;;;;5038759;28;20091;-68
2024/01/17 01:31:00;;;;;;;11.85;4.03;;;0.70;99.90;;;;;;5068107;28;20040;-67
2024/01/17 01:33:26;;;;;;;11.90;4.87;;;0.70;99.90;;;;;;5047170;28;20094;-67
2024/01/17 01:35:51;;;;;;;10.67;5.73;;;0.70;99.90;;;;;;5066459;28;20452;-68
2024/01/17 01:38:17;;;;;;;8.70;4.67;;;0.70;99.90;;;;;;5051711;28;20324;-68
2024/01/17 01:40:43;;;;;;;12.10;5.07;;;0.70;99.90;;;;;;5067769;28;20491;-68
2024/01/17 01:43:19;;;;;;;6.30;4.28;;;0.70;99.90;;;;;;5070960;28;20522;-68
2024/01/17 01:46:04;;;;;;;12.27;4.85;;;0.70;99.90;;;;;;5071012;28;20040;-68
2024/01/17 01:48:34;;;;;;;9.18;4.45;;;0.60;99.90;;;;;;5035075;28;20041;-68
2024/01/17 01:50:59;;;;;;;10.32;4.32;;;0.60;99.90;;;;;;5045491;28;20509;-67
2024/01/17 01:53:30;;;;;;;12.73;5.17;;;0.60;99.90;;;;;;5036272;28;20082;-67
2024/01/17 01:55:57;;;;;;;12.68;5.60;;;0.60;99.90;;;;;;5044483;28;20048;-68
2024/01/17 01:58:24;;;;;;;8.95;4.45;;;0.60;99.90;;;;;;5048248;28;20064;-68
2024/01/17 02:00:50;;;;;;;;;;;0.60;99.90;;;;;;5057638;28;20404;-68
2024/01/17 02:03:16;;;;;;;10.38;5.15;;;0.60;99.90;;;;;;5070464;28;19920;-68
2024/01/17 02:05:43;;;;;;;9.93;4.68;;;0.60;99.90;;;;;;5069562;28;20044;-67
2024/01/17 02:08:08;;;;;;;11.32;5.55;;;0.60;99.90;;;;;;5059976;28;20052;-67
2024/01/17 02:10:35;;;;;;;9.20;6.00;;;0.60;99.90;;;;;;5046987;28;20089;-68
2024/01/17 02:13:02;;;;;;;8.68;4.07;;;0.60;99.90;;;;;;5063870;28;20547;-67
2024/01/17 02:15:28;;;;;;;11.50;5.18;;;0.60;99.90;;;;;;5032976;28;20040;-68
2024/01/17 02:17:59;;;;;;;11.65;4.90;;;0.60;99.90;;;;;;5063490;28;20036;-68
2024/01/17 02:20:25;;;;;;;8.73;4.85;;;0.60;99.90;;;;;;5070161;28;20048;-67
2024/01/17 02:22:51;;;;;;;12.47;5.50;;;0.60;99.90;;;;;;5061086;28;20048;-68
2024/01/17 02:25:16;;;;;;;12.23;5.37;;;0.60;99.90;;;;;;5033541;28;20045;-68
2024/01/17 02:27:42;;;;;;;9.53;5.40;;;0.60;99.90;;;;;;5046993;28;20445;-68
2024/01/17 02:30:08;;;;;;;14.73;5.97;;;0.50;99.90;;;;;;5069961;28;20523;-67
2024/01/17 02:32:37;;;;;;;9.80;5.03;;;0.60;99.90;;;;;;5046716;28;20041;-68
2024/01/17 02:35:03;;;;;;;13.70;5.57;;;0.60;99.90;;;;;;5068160;28;20041;-68
2024/01/17 02:37:29;;;;;;;10.20;4.90;;;0.60;99.90;;;;;;5069812;28;20115;-68
2024/01/17 02:39:55;;;;;;;9.75;5.32;;;0.60;99.90;;;;;;5043435;28;20045;-68
2024/01/17 02:42:21;;;;;;;12.13;5.47;;;0.60;99.90;;;;;;5046294;28;20077;-68
2024/01/17 02:44:46;;;;;;;12.53;5.60;;;0.50;99.90;;;;;;5053468;28;20163;-68
2024/01/17 02:47:12;;;;;;;10.23;5.13;;;0.50;99.90;;;;;;5052069;28;20047;-67
2024/01/17 02:49:38;;;;;;;11.53;5.93;;;0.50;99.90;;;;;;5051702;28;20032;-67
2024/01/17 02:52:05;;;;;;;9.77;5.10;;;0.50;99.90;;;;;;5046371;28;20048;-67
2024/01/17 02:54:31;;;;;;;13.20;5.40;;;0.50;99.90;;;;;;5069541;28;20051;-68
2024/01/17 02:56:59;;;;;;;11.48;5.50;;;0.50;99.90;;;;;;5052508;28;20040;-68
2024/01/17 02:59:25;;;;;;;13.07;6.33;;;0.50;99.90;;;;;;5045378;28;20032;-68
2024/01/17 03:01:54;;;;;;;11.25;6.03;;;0.50;99.90;;;;;;5045210;28;20036;-68
2024/01/17 03:04:19;;;;;;;11.57;5.63;;;0.50;99.90;;;;;;5056435;28;20048;-67
2024/01/17 03:06:50;;;;;;;9.50;5.70;;;0.50;99.90;;;;;;5064767;28;20048;-68
2024/01/17 03:09:16;;;;;;;11.50;6.00;;;0.50;99.90;;;;;;5045331;28;20036;-67
2024/01/17 03:11:41;;;;;;;11.97;5.47;;;0.50;99.90;;;;;;5062540;28;20037;-67
2024/01/17 03:14:07;;;;;;;13.30;7.13;;;0.50;99.90;;;;;;5060747;28;20481;-68
2024/01/17 03:16:32;;;;;;;11.90;5.90;;;0.50;99.90;;;;;;5057188;28;20103;-67
2024/01/17 03:18:58;;;;;;;10.97;5.67;;;0.50;99.90;;;;;;5066806;28;20036;-68
2024/01/17 03:21:24;;;;;;;12.23;5.67;;;0.50;99.90;;;;;;5056380;28;20980;-69
2024/01/17 03:23:49;;;;;;;10.17;5.97;;;0.50;99.90;;;;;;5038714;28;20098;-69
2024/01/17 03:26:15;;;;;;;16.30;6.37;;;0.50;99.90;;;;;;5068494;28;20041;-71
2024/01/17 03:28:43;;;;;;;12.33;5.73;;;0.50;99.90;;;;;;5067926;28;20128;-69
2024/01/17 03:31:09;;;;;;;15.50;6.75;;;0.50;99.90;;;;;;5040620;28;20033;-68
2024/01/17 03:33:35;;;;;;;13.27;6.90;;;0.50;99.90;;;;;;5046506;28;20040;-67
2024/01/17 03:36:00;;;;;;;12.00;5.23;;;0.50;99.90;;;;;;5063396;28;20105;-67
2024/01/17 03:38:26;;;;;;;14.57;6.50;;;0.50;99.90;;;;;;5068020;28;20409;-68
2024/01/17 03:40:55;;;;;;;12.37;7.43;;;0.50;99.90;;;;;;5044761;28;20044;-67
2024/01/17 03:43:24;;;;;;;16.65;6.93;;;0.50;99.90;;;;;;5050542;28;20497;-68
2024/01/17 03:45:51;;;;;;;16.57;6.67;;;0.40;99.90;;;;;;5068867;28;20043;-68
2024/01/17 03:48:16;;;;;;;11.52;5.80;;;0.40;99.90;;;;;;5035665;28;20040;-67
2024/01/17 03:50:42;;;;;;;14.13;5.93;;;0.40;99.90;;;;;;5069332;28;20389;-68
2024/01/17 03:53:08;;;;;;;14.73;6.57;;;0.40;99.90;;;;;;5067797;28;20048;-68
2024/01/17 03:55:33;;;;;;;10.70;5.73;;;0.40;99.90;;;;;;5051905;28;20041;-67
2024/01/17 03:57:59;;;;;;;16.77;6.67;;;0.40;99.90;;;;;;5051190;28;20071;-68
2024/01/17 04:00:25;;;;;;;14.37;6.20;;;0.40;99.90;;;;;;5049402;28;20045;-68
2024/01/17 04:02:50;;;;;;;15.57;6.57;;;0.40;99.90;;;;;;5050684;28;20289;-67
2024/01/17 04:05:21;;;;;;;11.90;6.50;;;0.40;99.90;;;;;;5052167;28;20123;-67
2024/01/17 04:07:46;;;;;;;14.63;7.05;;;0.40;99.90;;;;;;5034137;28;20119;-67
2024/01/17 04:10:12;;;;;;;11.60;6.27;;;0.40;99.90;;;;;;5044817;28;20091;-68
2024/01/17 04:12:38;;;;;;;11.03;6.97;;;0.40;99.90;;;;;;5053756;28;20050;-67
2024/01/17 04:15:05;;;;;;;16.83;7.33;;;0.50;99.90;;;;;;5073274;28;20045;-68
2024/01/17 04:17:30;;;;;;;13.57;6.95;;;0.40;99.90;;;;;;5064862;28;20033;-67
2024/01/17 04:19:56;;;;;;;17.57;8.17;;;0.40;99.90;;;;;;5058679;28;20048;-68
2024/01/17 04:22:21;;;;;;;11.13;6.77;;;0.40;99.90;;;;;;5070370;28;20052;-67
2024/01/17 04:24:48;;;;;;;15.60;7.90;;;0.40;99.90;;;;;;5062041;28;20527;-68
2024/01/17 04:27:14;;;;;;;14.73;7.05;;;0.40;99.90;;;;;;5043674;28;20127;-67
2024/01/17 04:29:39;;;;;;;13.13;6.60;;;0.40;99.90;;;;;;5065916;28;20120;-68
2024/01/17 04:32:05;;;;;;;13.03;6.70;;;0.30;99.90;;;;;;5052286;28;20048;-67
2024/01/17 04:34:30;;;;;;;11.57;6.03;;;0.40;99.90;;;;;;5064373;28;20040;-67
2024/01/17 04:36:59;;;;;;;15.27;6.85;;;0.40;99.90;;;;;;5058529;28;20036;-67
2024/01/17 04:39:27;;;;;;;16.87;7.07;;;0.40;99.90;;;;;;5066972;28;20037;-69
2024/01/17 04:41:53;;;;;;;13.80;6.68;;;0.30;99.90;;;;;;5042017;28;20159;-69
2024/01/17 04:44:18;;;;;;;16.33;6.57;;;0.40;99.90;;;;;;5025162;28;20068;-69
2024/01/17 04:46:46;;;;;;;11.00;6.07;;;0.30;99.90;;;;;;5062311;28;20033;-69
2024/01/17 04:49:12;;;;;;;12.93;6.57;;;0.30;99.90;;;;;;5038007;28;20052;-69
2024/01/17 04:51:38;;;;;;;16.23;6.47;;;0.30;99.90;;;;;;5046827;28;20041;-69
2024/01/17 04:54:07;;;;;;;10.02;5.65;;;0.30;99.90;;;;;;5049437;28;20443;-69
2024/01/17 04:56:32;;;;;;;13.43;6.68;;;0.30;99.90;;;;;;5061717;28;20054;-69
2024/01/17 04:58:58;;;;;;;16.60;6.67;;;0.30;99.90;;;;;;5049996;28;20041;-69
2024/01/17 05:01:23;;;;;;;12.07;6.13;;;0.30;99.90;;;;;;5041740;28;20037;-69
2024/01/17 05:03:49;;;;;;;15.57;7.03;;;0.30;99.90;;;;;;5045959;28;20044;-69
2024/01/17 05:06:15;;;;;;;14.90;7.40;;;0.30;99.90;;;;;;5065068;28;20028;-69
2024/01/17 05:08:41;;;;;;;13.53;5.93;;;0.30;99.90;;;;;;5067347;28;20440;-69
2024/01/17 05:11:06;;;;;;;11.83;6.27;;;0.30;99.90;;;;;;5059043;28;20723;-69
2024/01/17 05:13:32;;;;;;;14.67;6.30;;;0.30;99.90;;;;;;5061181;28;20294;-69
2024/01/17 05:15:57;;;;;;;17.43;8.07;;;0.30;99.90;;;;;;5042661;28;20114;-69
2024/01/17 05:18:23;;;;;;;14.27;6.97;;;0.30;99.90;;;;;;5038305;28;20036;-69
2024/01/17 05:20:49;;;;;;;14.98;6.43;;;0.20;99.90;;;;;;5048767;28;20040;-69
2024/01/17 05:23:14;;;;;;;14.10;7.60;;;0.20;99.90;;;;;;5043432;28;20543;-69
2024/01/17 05:25:40;;;;;;;16.53;7.17;;;0.20;99.90;;;;;;5063970;28;20039;-69
2024/01/17 05:28:06;;;;;;;12.03;6.47;;;0.10;99.90;;;;;;5068089;28;20098;-69
2024/01/17 05:30:35;;;;;;;12.02;6.57;;;0.10;99.90;;;;;;5043927;28;20193;-69
2024/01/17 05:33:01;;;;;;;16.35;6.78;;;0.10;99.90;;;;;;5042422;28;20086;-69
2024/01/17 05:35:28;;;;;;;17.40;8.03;;;0.10;99.90;;;;;;5067093;28;20059;-69
2024/01/17 05:37:54;;;;;;;17.77;6.55;;;0.10;99.90;;;;;;5022894;28;20074;-69
2024/01/17 05:40:22;;;;;;;15.88;6.63;;;0.00;99.90;;;;;;5049807;28;20512;-68
2024/01/17 05:42:48;;;;;;;18.07;7.93;;;0.00;99.90;;;;;;5064952;28;20096;-68
2024/01/17 05:45:13;;;;;;;10.30;6.00;;;0.00;99.90;;;;;;5042592;28;20409;-68
2024/01/17 05:47:40;;;;;;;14.20;7.17;;;0.00;99.90;;;;;;5043600;28;20040;-68
2024/01/17 05:50:11;;;;;;;17.42;7.38;;;0.00;99.90;;;;;;5063896;28;20041;-68
2024/01/17 05:52:48;;;;;;;12.35;6.25;;;-0.10;99.90;;;;;;5042973;28;20049;-68
2024/01/17 05:55:15;;;;;;;14.25;7.28;;;-0.10;99.90;;;;;;5046336;28;20459;-69
2024/01/17 05:57:41;;;;;;;13.68;6.70;;;-0.10;99.90;;;;;;5068493;28;20489;-68
2024/01/17 06:00:09;;;;;;;16.15;7.32;;;-0.20;99.90;;;;;;5036957;28;20053;-68
2024/01/17 06:02:42;;;;;;;14.95;7.00;;;-0.20;99.90;;;;;;5044476;28;20314;-69
2024/01/17 06:05:08;;;;;;;17.75;7.05;;;-0.20;99.90;;;;;;5043776;28;20362;-68
2024/01/17 06:07:40;;;;;;;12.55;7.28;;;-0.20;99.90;;;;;;5025607;28;20142;-69
2024/01/17 06:10:08;;;;;;;15.25;6.65;;;-0.20;99.90;;;;;;5040808;28;20044;-68
2024/01/17 06:12:34;;;;;;;13.23;6.65;;;-0.30;99.90;;;;;;5031723;28;20040;-68
2024/01/17 06:15:02;;;;;;;14.57;6.88;;;-0.30;99.90;;;;;;5059908;28;20032;-68
2024/01/17 06:17:28;;;;;;;14.02;6.90;;;-0.30;99.90;;;;;;5023394;28;20219;-73
2024/01/17 06:19:54;;;;;;;18.73;7.50;;;-0.30;99.90;;;;;;5045590;28;20117;-75
2024/01/17 06:22:19;;;;;;;10.47;6.30;;;-0.30;99.90;;;;;;5038920;28;20049;-68
2024/01/17 06:24:48;;;;;;;11.00;6.40;;;-0.30;99.90;;;;;;5059959;28;20036;-68
2024/01/17 06:27:15;;;;;;;16.30;7.57;;;-0.30;99.90;;;;;;5041920;28;20056;-70
2024/01/17 06:29:45;;;;;;;16.70;6.85;;;-0.40;99.90;;;;;;5038759;28;20508;-69
2024/01/17 06:32:12;;;;;;;19.52;6.88;;;-0.30;99.90;;;;;;5062715;28;20489;-69
2024/01/17 06:34:39;;;;;;;14.82;7.15;;;-0.30;99.90;;;;;;5066776;28;20040;-69
2024/01/17 06:37:05;;;;;;;20.00;7.18;;;-0.30;99.90;;;;;;5059538;28;20490;-69
2024/01/17 06:39:31;;;;;;;13.23;7.22;;;-0.30;99.90;;;;;;5042813;28;20039;-69
2024/01/17 06:41:58;;;;;;;16.92;7.05;;;-0.30;99.90;;;;;;5043761;28;20049;-69
2024/01/17 06:44:23;;;;;;;14.98;7.35;;;-0.30;99.90;;;;;;5041587;28;20135;-69
2024/01/17 06:46:49;;;;;;;12.27;6.97;;;-0.30;99.90;;;;;;5039236;28;20045;-69
2024/01/17 06:49:15;;;;;;;12.43;6.43;;;-0.30;99.90;;;;;;5043198;28;20116;-69
2024/01/17 06:51:40;;;;;;;12.83;6.97;;;-0.30;99.90;;;;;;5040989;28;20047;-69
2024/01/17 06:54:06;;;;;;;14.23;6.83;;;-0.30;99.90;;;;;;5063193;28;20048;-69
2024/01/17 06:56:34;;;;;;;14.27;6.90;;;-0.30;99.90;;;;;;5044916;28;20539;-70
2024/01/17 06:59:00;;;;;;;11.35;6.45;;;-0.30;99.90;;;;;;5061590;28;20500;-68
2024/01/17 07:01:26;;;;;;;15.87;7.37;;;-0.30;99.90;;;;;;5046193;28;20127;-71
2024/01/17 07:03:52;;;;;;;16.58;7.03;;;-0.40;99.90;;;;;;5062713;28;20110;-70
2024/01/17 07:06:18;;;;;;;10.93;6.07;;;-0.30;99.90;;;;;;5040800;28;20216;-69
2024/01/17 07:08:43;;;;;;;12.23;6.87;;;-0.40;99.90;;;;;;5055461;28;20044;-69
2024/01/17 07:11:13;;;;;;;13.60;5.53;;;-0.30;99.90;;;;;;5049725;28;20127;-70
2024/01/17 07:13:39;;;;;;;11.85;6.38;;;-0.40;99.90;;;;;;5070119;28;20048;-69
2024/01/17 07:16:07;;;;;;;17.20;5.97;;;-0.40;99.90;;;;;;5052027;28;20047;-69
2024/01/17 07:18:34;;;;;;;12.00;5.53;;;-0.40;99.90;;;;;;5034193;28;20427;-69
2024/01/17 07:21:06;;;;;;;10.95;6.22;;;-0.50;99.90;;;;;;5067867;28;20093;-70
2024/01/17 07:23:32;;;;;;;16.90;6.15;;;-0.40;99.90;;;;;;5042787;28;20417;-70
2024/01/17 07:25:58;;;;;;;24.13;9.80;;;-0.50;99.90;;;;;;5065905;28;20059;-70
2024/01/17 07:28:24;;;;;;;15.17;6.73;;;-0.50;99.90;;;;;;5039190;28;20569;-70
2024/01/17 07:30:50;;;;;;;13.85;7.03;;;-0.50;99.90;;;;;;5058814;28;20508;-70
2024/01/17 07:33:23;;;;;;;12.13;5.82;;;-0.50;99.90;;;;;;5047513;28;20068;-70
2024/01/17 07:35:49;;;;;;;13.27;5.82;;;-0.50;99.90;;;;;;5061707;28;20111;-70
2024/01/17 07:38:14;;;;;;;19.77;6.97;;;-0.50;99.90;;;;;;5043660;28;20116;-70
2024/01/17 07:40:41;;;;;;;10.03;5.30;;;-0.60;99.90;;;;;;5050393;28;20287;-70
2024/01/17 07:43:07;;;;;;;;;;;-0.60;99.90;;;;;;5057764;28;20132;-70
2024/01/17 07:45:32;;;;;;;12.82;6.22;;;-0.60;99.90;;;;;;5061024;28;20016;-70
2024/01/17 07:47:58;;;;;;;13.53;6.10;;;-0.60;99.90;;;;;;5044487;28;20071;-71
2024/01/17 07:50:23;;;;;;;14.73;6.53;;;-0.60;99.90;;;;;;5037297;28;20043;-70
2024/01/17 07:52:52;;;;;;;16.43;6.93;;;-0.60;99.90;;;;;;5070418;28;20045;-70
2024/01/17 07:55:17;;;;;;;12.60;5.50;;;-0.60;99.90;;;;;;5047096;28;20044;-70
2024/01/17 07:57:43;;;;;;;12.33;6.70;;;-0.60;99.90;;;;;;5049097;28;20044;-71
2024/01/17 08:00:11;;;;;;;12.97;7.10;;;-0.60;99.90;;;;;;5037268;28;20083;-70
2024/01/17 08:02:37;;;;;;;12.32;7.00;;;-0.70;99.90;;;;;;5064086;28;20057;-70
2024/01/17 08:05:03;;;;;;;12.82;5.72;;;-0.60;99.90;;;;;;5047548;28;20089;-70
2024/01/17 08:07:29;;;;;;;10.13;5.83;;;-0.70;99.90;;;;;;5057661;28;20041;-71
2024/01/17 08:09:55;;;;;;;13.70;6.50;;;-0.70;99.90;;;;;;5078397;28;20119;-70
2024/01/17 08:12:20;;;;;;;16.23;6.83;;;-0.70;99.90;;;;;;5043058;28;20059;-70
2024/01/17 08:14:47;;;;;;;13.87;7.50;;;-0.60;99.90;;;;;;5052653;28;20423;-69
2024/01/17 08:17:12;;;;;;;19.73;6.90;;;-0.70;99.90;;;;;;5050583;28;20033;-70
2024/01/17 08:19:39;;;;;;;14.53;7.10;;;-0.70;99.90;;;;;;5073766;28;20152;-70
2024/01/17 08:22:04;;;;;;;15.25;7.50;;;-0.70;99.90;;;;;;5040865;28;20402;-70
2024/01/17 08:24:31;;;;;;;11.60;6.40;;;-0.70;99.90;;;;;;5068804;28;20037;-70
2024/01/17 08:26:57;;;;;;;14.68;6.88;;;-0.70;99.90;;;;;;5033527;28;20089;-70
2024/01/17 08:29:23;;;;;;;12.93;7.18;;;-0.70;99.90;;;;;;5044690;28;20037;-70
2024/01/17 08:31:49;;;;;;;19.13;6.72;;;-0.70;99.90;;;;;;5063377;28;20521;-70
2024/01/17 08:34:15;;;;;;;15.82;7.70;;;-0.60;99.90;;;;;;5046903;28;20315;-70
2024/01/17 08:36:41;;;;;;;11.50;6.33;;;-0.60;99.90;;;;;;5047498;28;20441;-70
2024/01/17 08:39:07;;;;;;;12.05;6.25;;;-0.60;99.90;;;;;;5040435;28;20446;-70
2024/01/17 08:41:33;;;;;;;12.80;6.30;;;-0.70;99.90;;;;;;5055733;28;20048;-70
2024/01/17 08:44:01;;;;;;;14.82;6.85;;;-0.70;99.90;;;;;;5035811;28;20054;-70
2024/01/17 08:46:26;;;;;;;19.10;6.68;;;-0.60;99.90;;;;;;5058913;28;20040;-70
2024/01/17 08:48:52;;;;;;;15.17;6.80;;;-0.60;99.90;;;;;;5052346;28;20054;-70
2024/01/17 08:51:19;;;;;;;11.60;6.43;;;-0.60;99.90;;;;;;5070330;28;20460;-70
2024/01/17 08:53:47;;;;;;;12.68;6.75;;;-0.60;99.90;;;;;;5040711;28;20044;-70
2024/01/17 08:56:14;;;;;;;12.65;5.68;;;-0.60;99.90;;;;;;5042526;28;20104;-70
2024/01/17 08:58:41;;;;;;;11.23;6.35;;;-0.60;99.90;;;;;;5065812;28;20046;-70
2024/01/17 09:01:06;;;;;;;18.83;7.38;;;-0.50;99.90;;;;;;5052229;28;20046;-70
2024/01/17 09:03:34;;;;;;;11.27;6.63;;;-0.50;99.90;;;;;;5049463;28;20044;-70
2024/01/17 09:06:00;;;;;;;12.43;5.88;;;-0.50;99.90;;;;;;5038992;28;20037;-70
2024/01/17 09:08:26;;;;;;;12.68;6.15;;;-0.50;99.90;;;;;;5066223;28;20116;-70
2024/01/17 09:10:52;;;;;;;17.63;6.53;;;-0.40;99.90;;;;;;5039672;28;20052;-70
2024/01/17 09:13:17;;;;;;;12.97;6.10;;;-0.40;99.90;;;;;;5049080;28;20072;-75
2024/01/17 09:15:43;;;;;;;11.07;6.07;;;-0.40;99.90;;;;;;5048500;28;20060;-76
2024/01/17 09:18:09;;;;;;;10.27;6.33;;;-0.40;99.90;;;;;;5057828;28;20566;-75
2024/01/17 09:20:35;;;;;;;10.87;6.70;;;-0.30;99.90;;;;;;5052432;28;20040;-74
2024/01/17 09:23:00;;;;;;;11.32;6.65;;;-0.30;99.90;;;;;;5072279;28;20045;-70
2024/01/17 09:25:26;;;;;;;11.53;6.40;;;-0.30;99.90;;;;;;5052530;28;20047;-70
2024/01/17 09:27:52;;;;;;;12.33;6.57;;;-0.30;99.90;;;;;;5062874;28;20593;-69
2024/01/17 09:30:17;;;;;;;25.20;6.37;;;-0.30;99.90;;;;;;5039464;28;20304;-70
2024/01/17 09:32:47;;;;;;;14.20;6.80;;;-0.30;99.90;;;;;;5064294;28;20052;-69
2024/01/17 09:35:13;;;;;;;12.85;6.82;;;-0.20;99.90;;;;;;5043052;28;20075;-69
2024/01/17 09:37:39;;;;;;;11.35;6.28;;;-0.20;99.90;;;;;;5057790;28;20057;-69
2024/01/17 09:40:06;;;;;;;16.07;6.43;;;-0.20;99.90;;;;;;5068887;28;20040;-69
2024/01/17 09:42:34;;;;;;;;;;;-0.20;99.90;;;;;;5053314;28;20489;-68
2024/01/17 09:45:03;;;;;;;9.48;5.45;;;-0.20;99.90;;;;;;5054919;28;20531;-68
2024/01/17 09:47:33;;;;;;;14.05;6.05;;;-0.20;99.90;;;;;;5030457;28;20081;-68
2024/01/17 09:50:00;;;;;;;8.60;5.70;;;-0.10;99.90;;;;;;5052709;28;20052;-68
2024/01/17 09:52:25;;;;;;;10.82;5.45;;;-0.20;99.90;;;;;;5053853;28;20746;-68
2024/01/17 09:54:55;;;;;;;17.13;7.17;;;-0.10;99.90;;;;;;5051573;28;20079;-68
2024/01/17 09:57:25;;;;;;;10.68;5.68;;;-0.10;99.90;;;;;;5073130;28;20055;-68
2024/01/17 09:59:57;;;;;;;8.80;5.22;;;0.00;99.90;;;;;;5056895;28;20047;-68
2024/01/17 10:02:24;;;;;;;9.75;5.80;;;0.00;99.90;;;;;;5059645;28;20103;-68
2024/01/17 10:04:50;;;;;;;12.95;6.28;;;0.00;99.90;;;;;;5046702;28;20516;-68
2024/01/17 10:07:18;;;;;;;13.87;5.63;;;0.00;99.90;;;;;;5048633;28;20043;-69
2024/01/17 10:09:45;;;;;;;14.02;6.30;;;0.10;99.90;;;;;;5045404;28;20072;-68
2024/01/17 10:12:11;;;;;;;14.57;5.40;;;0.10;99.90;;;;;;5063000;28;20040;-68
2024/01/17 10:14:38;;;;;;;10.45;5.43;;;0.10;99.90;;;;;;5049089;28;20051;-68
2024/01/17 10:17:05;;;;;;;13.38;5.97;;;0.20;99.90;;;;;;5044262;28;20044;-68
2024/01/17 10:19:30;;;;;;;11.35;6.10;;;0.20;99.90;;;;;;5070786;28;20119;-68
2024/01/17 10:21:56;;;;;;;15.77;6.67;;;0.20;99.90;;;;;;5067282;28;20135;-68
2024/01/17 10:24:21;;;;;;;15.23;5.80;;;0.20;99.90;;;;;;5039977;28;20043;-68
2024/01/17 10:26:51;;;;;;;14.37;6.63;;;0.30;99.90;;;;;;5048917;28;20459;-68
2024/01/17 10:29:16;;;;;;;14.00;5.70;;;0.30;99.90;;;;;;5045958;28;20041;-68
2024/01/17 10:31:42;;;;;;;16.77;7.00;;;0.30;99.90;;;;;;5045080;28;20055;-68
2024/01/17 10:34:08;;;;;;;12.73;6.57;;;0.40;99.90;;;;;;5042629;28;20090;-68
2024/01/17 10:36:38;;;;;;;10.02;5.05;;;0.40;99.90;;;;;;5068586;28;20036;-68
2024/01/17 10:39:04;;;;;;;10.93;5.88;;;0.40;99.90;;;;;;5048565;28;20044;-68
2024/01/17 10:41:31;;;;;;;11.83;5.23;;;0.50;99.90;;;;;;5049992;28;20565;-69
2024/01/17 10:43:57;;;;;;;;;;;0.50;99.90;;;;;;5063643;28;20490;-68
2024/01/17 10:46:23;;;;;;;14.07;5.38;;;0.40;99.90;;;;;;5068339;28;19934;-68
2024/01/17 10:48:50;;;;;;;15.75;5.05;;;0.50;99.90;;;;;;5067379;28;20381;-68
2024/01/17 10:51:21;;;;;;;10.40;6.68;;;0.50;99.90;;;;;;5071153;28;20044;-68
2024/01/17 10:53:50;;;;;;;11.10;5.70;;;0.60;99.90;;;;;;5069817;28;20047;-70
2024/01/17 10:56:21;;;;;;;11.70;5.20;;;0.50;99.90;;;;;;5058878;28;20032;-70
2024/01/17 10:58:51;;;;;;;14.65;6.65;;;0.60;99.90;;;;;;5063575;28;20524;-70
2024/01/17 11:01:30;;;;;;;15.93;6.78;;;0.70;99.90;;;;;;5046363;28;20452;-70
2024/01/17 11:04:02;;;;;;;9.40;5.63;;;0.70;99.90;;;;;;5039718;28;20053;-69
2024/01/17 11:06:28;;;;;;;10.93;5.07;;;0.70;99.90;;;;;;5036519;28;20032;-69
2024/01/17 11:08:55;;;;;;;10.55;5.05;;;0.70;99.90;;;;;;5045896;28;20041;-69
2024/01/17 11:11:23;;;;;;;14.60;5.80;;;0.70;99.90;;;;;;5063536;28;20083;-69
2024/01/17 11:13:50;;;;;;;10.00;4.55;;;0.70;99.90;;;;;;5064210;28;20118;-69
2024/01/17 11:16:18;;;;;;;8.00;4.78;;;0.70;99.90;;;;;;5046517;28;20050;-69
2024/01/17 11:18:46;;;;;;;11.90;5.72;;;0.70;99.90;;;;;;5049323;28;20093;-69
2024/01/17 11:21:11;;;;;;;9.57;5.43;;;0.70;99.90;;;;;;5046548;28;20055;-69
2024/01/17 11:23:55;;;;;;;10.10;5.17;;;0.70;99.90;;;;;;5045326;28;20091;-69
2024/01/17 11:26:28;;;;;;;12.82;4.57;;;0.80;99.90;;;;;;5045109;28;20044;-69
2024/01/17 11:29:19;;;;;;;11.32;4.93;;;0.80;99.90;;;;;;5047801;28;20044;-69
2024/01/17 11:31:50;;;;;;;11.82;5.13;;;0.80;99.90;;;;;;5062147;28;20501;-69
2024/01/17 11:34:16;;;;;;;17.25;6.97;;;0.70;99.90;;;;;;5065724;28;20039;-69
2024/01/17 11:36:46;;;;;;;11.83;5.30;;;0.70;99.90;;;;;;5046703;28;20075;-68
2024/01/17 11:39:19;;;;;;;12.55;5.03;;;0.80;99.90;;;;;;5037279;28;20297;-67
2024/01/17 11:41:46;;;;;;;9.85;4.97;;;0.80;99.90;;;;;;5061416;28;20272;-67
2024/01/17 11:44:14;;;;;;;12.32;5.28;;;0.80;99.90;;;;;;5063649;28;20046;-67
2024/01/17 11:46:40;;;;;;;10.52;5.93;;;0.90;99.90;;;;;;5066633;28;20050;-67
2024/01/17 11:49:14;;;;;;;11.82;4.97;;;0.90;99.90;;;;;;5064384;28;20033;-67
2024/01/17 11:51:40;;;;;;;9.68;5.10;;;0.90;99.90;;;;;;5040779;28;20049;-67
2024/01/17 11:54:09;;;;;;;8.52;4.65;;;0.90;99.90;;;;;;5043534;28;20385;-67
2024/01/17 11:56:35;;;;;;;13.00;6.45;;;0.90;99.90;;;;;;5041238;28;20048;-67
2024/01/17 11:59:05;;;;;;;11.50;5.03;;;0.90;99.90;;;;;;5061107;28;20421;-67
2024/01/17 12:01:31;;;;;;;9.93;5.45;;;0.90;99.90;;;;;;5047683;28;20127;-67
2024/01/17 12:03:56;;;;;;;12.23;6.00;;;0.90;99.90;;;;;;5034548;28;20132;-67
2024/01/17 12:06:22;;;;;;;12.57;5.47;;;0.90;99.90;;;;;;5057476;28;20048;-67
2024/01/17 12:08:52;;;;;;;12.20;5.40;;;0.90;99.90;;;;;;5039296;28;20033;-67
2024/01/17 12:11:18;;;;;;;11.10;6.18;;;0.90;99.90;;;;;;5035587;28;20040;-67
2024/01/17 12:13:43;;;;;;;8.63;4.43;;;1.00;99.90;;;;;;5060286;28;20037;-66
2024/01/17 12:16:10;;;;;;;8.87;4.57;;;1.00;99.90;;;;;;5035900;28;20304;-67
2024/01/17 12:18:37;;;;;;;9.52;5.35;;;1.00;99.90;;;;;;5057341;28;20041;-67
2024/01/17 12:21:04;;;;;;;10.30;4.63;;;1.00;99.90;;;;;;5059961;28;20129;-67
2024/01/17 12:23:34;;;;;;;11.75;5.10;;;1.00;99.90;;;;;;5036753;28;20060;-67
2024/01/17 12:26:00;;;;;;;11.13;5.28;;;1.00;99.90;;;;;;5058395;28;20041;-67
2024/01/17 12:28:30;;;;;;;10.00;5.20;;;1.10;99.90;;;;;;5065442;28;20251;-67
2024/01/17 12:31:03;;;;;;;8.73;4.22;;;1.10;99.90;;;;;;5034583;28;20033;-66
2024/01/17 12:33:34;;;;;;;12.65;5.22;;;1.10;99.90;;;;;;5045697;28;20051;-67
2024/01/17 12:36:01;;;;;;;10.63;4.68;;;1.00;99.90;;;;;;5052514;28;20490;-72
2024/01/17 12:38:28;;;;;;;;;;;1.00;99.90;;;;;;5047029;28;20573;-67
2024/01/17 12:40:54;;;;;;;10.50;4.88;;;0.90;99.90;;;;;;5035799;28;20007;-67
2024/01/17 12:43:21;;;;;;;10.05;5.20;;;0.90;99.90;;;;;;5071994;28;20037;-67
2024/01/17 12:45:47;;;;;;;;;;;0.80;99.90;;;;;;5042197;28;20099;-67